Pagrindinis puslapis
METAR-TAF:

METAR-TAF

Oro uostai :

Sonora Municipal Airport

Sonora, Teksasas, Jungtinės Amerikos Valstijos

platuma: 30-35-08N, ilguma: 100-38-54W, Aukštis: 652 m

Dabartinis oras

Ataskaita buvo paskelbta 27 minutes, ne 11:15 UTC
Ramus vėjas
Temperatūra 2°C
Drėgmė 93%
Slėgis 1021 hPa
Matomumas: 16.1 km
Giedras dangus

METAR: KSOA 301115Z AUTO 00000KT 10SM CLR 02/01 A3014 RMK AO2

Laikas: 05:42 (11:42 UTC)

Prognozė

Ataskaita buvo paskelbta 6 valandos ir 22 minutes, ne 05:20 UTC
Prognozė galioja nuo 30 metu 06 UTC su 01 metu 06 UTC
Vėjas 5 kt iš Pietų
Matomumas: 10 km
Giedras dangus
Nuo 30 metu 1700 UTC
Vėjas 9 kt iš Pietų
Matomumas: 10 km
Giedras dangus

TAF: KSOA 300520Z 3006/0106 19005KT P6SM SKC FM301700 19009KT P6SM SKC

Orai ataskaitas ir orų prognozės (METAR, TAF).

turimą stotys yra geltonos ir raudonos taškus žemėlapyje.

Perkelti pele per norėdami pamatyti stoties vardą.

Tada spustelėkite, norėdami matyti oro stebėjimo ir prognozės.

Norėdami pakeisti žemėlapį: spustelėkite ant žalios mygtukų su juodo kryžiaus žemyn,; žalią mygtuką su brūkšneliu, jei norite nutolinti; arba žalių rodyklių gretimoms žemėlapius.


METAR-TAF: